createdAt,value
2023-08-14T00:02:32.064Z,8.35
2023-08-14T00:07:46.802Z,8.52
2023-08-14T00:13:02.956Z,8.52
2023-08-14T00:18:18.504Z,8.51
2023-08-14T00:23:34.036Z,8.51
2023-08-14T00:28:50.830Z,8.61
2023-08-14T00:34:06.967Z,8.61
2023-08-14T00:39:23.122Z,8.71
2023-08-14T00:44:39.276Z,8.71
2023-08-14T00:49:55.457Z,8.57
2023-08-14T00:55:12.899Z,8.57
2023-08-14T01:00:28.679Z,8.55
2023-08-14T01:05:43.951Z,8.55
2023-08-14T01:11:00.747Z,8.62
2023-08-14T01:16:16.391Z,8.62
2023-08-14T01:21:33.095Z,8.38
2023-08-14T01:26:49.209Z,8.67
2023-08-14T01:32:06.206Z,8.67
2023-08-14T01:37:24.814Z,8.48
2023-08-14T01:42:37.060Z,8.48
2023-08-14T01:47:53.673Z,8.63
2023-08-14T01:53:10.729Z,8.63
2023-08-14T01:58:26.912Z,8.58
2023-08-14T02:03:43.846Z,8.58
2023-08-14T02:08:59.865Z,8.72
2023-08-14T02:14:15.370Z,8.72
2023-08-14T02:19:32.342Z,8.68
2023-08-14T02:24:47.680Z,8.68
2023-08-14T02:30:04.649Z,8.79
2023-08-14T02:35:21.416Z,8.79
2023-08-14T02:40:37.481Z,8.72
2023-08-14T02:45:53.243Z,8.72
2023-08-14T02:51:09.925Z,8.58
2023-08-14T04:14:03.566Z,8.48
2023-08-14T04:19:12.933Z,8.6
2023-08-14T04:24:28.402Z,8.6
2023-08-14T04:29:43.913Z,8.79
2023-08-14T04:35:00.767Z,8.79
2023-08-14T04:40:15.593Z,8.54
2023-08-14T04:45:30.532Z,8.54
2023-08-14T04:50:46.716Z,8.5
2023-08-14T04:56:02.302Z,8.5
2023-08-14T05:01:19.189Z,8.69
2023-08-14T05:06:34.516Z,8.69
2023-08-14T05:12:21.083Z,8.61
2023-08-14T05:17:37.102Z,8.61
2023-08-14T05:22:53.943Z,8.52
2023-08-14T05:28:09.216Z,8.45
2023-08-14T05:33:24.772Z,8.45
2023-08-14T05:38:40.879Z,8.59
2023-08-14T05:43:56.426Z,8.59
2023-08-14T05:49:12.568Z,8.53
2023-08-14T05:54:28.724Z,8.53
2023-08-14T05:59:43.639Z,8.65
2023-08-14T06:04:58.530Z,8.65
2023-08-14T06:10:15.916Z,8.66
2023-08-14T06:15:32.748Z,8.66
2023-08-14T06:20:48.371Z,8.51
2023-08-14T06:26:05.070Z,8.51
2023-08-14T06:31:20.961Z,8.81
2023-08-14T06:36:36.107Z,8.81
2023-08-14T06:41:52.616Z,8.51
2023-08-14T06:43:47.323Z,8.51
2023-08-14T06:49:02.736Z,8.6
2023-08-14T06:54:18.485Z,8.6
2023-08-14T06:59:35.871Z,8.46
2023-08-14T07:04:52.525Z,8.46
2023-08-14T07:10:09.352Z,8.55
2023-08-14T07:15:24.140Z,8.55
2023-08-14T07:20:38.451Z,8.5
2023-08-14T07:25:56.053Z,8.5
2023-08-14T07:31:04.710Z,8.72
2023-08-14T07:36:23.336Z,8.72
2023-08-14T07:44:20.753Z,8.94
2023-08-14T07:49:53.511Z,8.69
2023-08-14T07:55:09.059Z,8.69
2023-08-14T08:04:46.984Z,8.57
2023-08-14T08:10:20.422Z,8.45
2023-08-14T08:15:37.220Z,8.45
2023-08-14T08:21:40.978Z,8.45
2023-08-14T08:27:30.816Z,8.45
2023-08-14T08:32:46.497Z,8.36
2023-08-14T09:10:55.926Z,8.4
2023-08-14T09:16:40.846Z,8.4
2023-08-14T09:29:59.346Z,8.32
2023-08-14T09:35:31.459Z,8.32
2023-08-14T09:40:53.987Z,8.38
2023-08-14T10:17:18.665Z,8.44
2023-08-14T10:22:26.852Z,8.27
2023-08-14T10:27:45.553Z,8.27
2023-08-14T10:30:04.172Z,8.27
2023-08-14T10:35:10.508Z,8.36
2023-08-14T10:40:56.743Z,8.41
2023-08-14T10:46:03.287Z,8.41
2023-08-14T10:52:56.580Z,8.41
2023-08-14T10:57:59.378Z,8.44
2023-08-14T11:07:29.265Z,8.44
2023-08-14T11:13:02.389Z,8.58
2023-08-14T11:20:13.799Z,8.47
2023-08-14T11:24:23.055Z,8.47
2023-08-14T11:29:33.832Z,8.4
2023-08-14T11:34:53.279Z,8.4
2023-08-14T11:40:11.131Z,8.33
2023-08-14T11:48:42.474Z,8.33
2023-08-14T11:51:00.488Z,8.33
2023-08-14T11:56:09.865Z,8.28
2023-08-14T12:01:25.619Z,8.43
2023-08-14T12:06:50.520Z,8.43
2023-08-14T12:12:09.236Z,8.38
2023-08-14T12:19:12.274Z,8.38
2023-08-14T12:37:50.226Z,8.38
2023-08-14T12:41:36.917Z,8.31
2023-08-14T12:49:18.985Z,8.31
2023-08-14T12:58:39.068Z,8.31
2023-08-14T13:03:49.740Z,8.44
2023-08-14T13:09:50.960Z,8.44
2023-08-14T13:23:09.951Z,8.33
2023-08-14T13:28:06.688Z,8.48
2023-08-14T13:33:34.994Z,8.42
2023-08-14T13:39:19.316Z,8.42
2023-08-14T13:44:29.051Z,8.39
2023-08-14T13:51:50.641Z,8.32
2023-08-14T13:57:29.248Z,8.32
2023-08-14T14:05:01.733Z,8.23
2023-08-14T14:10:55.656Z,8.28
2023-08-14T14:16:11.373Z,8.28
2023-08-14T14:18:06.418Z,8.28
2023-08-14T14:23:15.504Z,8.33
2023-08-14T14:28:32.900Z,8.33
2023-08-14T14:33:49.047Z,8.37
2023-08-14T14:39:08.434Z,8.37
2023-08-14T14:47:06.203Z,8.4
2023-08-14T14:52:14.980Z,8.3
2023-08-14T14:55:33.006Z,8.3
2023-08-14T15:00:41.247Z,8.3
2023-08-14T15:08:55.061Z,8.21
2023-08-14T15:14:03.790Z,8.23
2023-08-14T15:19:50.040Z,8.23
2023-08-14T15:25:05.542Z,8.31
2023-08-14T15:30:32.548Z,8.31
2023-08-14T15:35:48.134Z,8.23
2023-08-14T15:41:03.627Z,8.31
2023-08-14T15:46:20.424Z,8.31
2023-08-14T15:52:18.215Z,8.17
2023-08-14T15:57:52.880Z,8.17
2023-08-14T16:03:52.198Z,8.16
2023-08-14T16:15:50.348Z,8.27
2023-08-14T16:23:05.849Z,8.27
2023-08-14T16:28:11.142Z,8.23
2023-08-14T16:33:27.931Z,8.25
2023-08-14T16:38:43.439Z,8.25
2023-08-14T16:43:58.318Z,8.21
2023-08-14T16:49:15.770Z,8.21
2023-08-14T16:54:31.939Z,8.31
2023-08-14T16:59:48.723Z,8.31
2023-08-14T17:05:38.904Z,8.2
2023-08-14T17:10:58.859Z,8.2
2023-08-14T17:16:14.516Z,8.2
2023-08-14T17:21:30.525Z,8.2
2023-08-14T17:26:47.299Z,8.18
2023-08-14T17:32:05.684Z,8.24
2023-08-14T17:37:23.918Z,8.24
2023-08-14T17:42:38.969Z,8.24
2023-08-14T17:47:54.743Z,8.24
2023-08-14T17:53:10.028Z,8.33
2023-08-14T17:58:27.688Z,8.33
2023-08-14T18:03:42.324Z,8.17
2023-08-14T18:09:02.981Z,8.17
2023-08-14T18:14:19.809Z,8.21
2023-08-14T18:19:36.617Z,8.21
2023-08-14T18:24:53.368Z,8.29
2023-08-14T18:30:12.323Z,8.29
2023-08-14T18:35:26.326Z,8.35
2023-08-14T18:40:41.862Z,8.35
2023-08-14T18:45:57.956Z,8.38
2023-08-14T18:51:14.941Z,8.38
2023-08-14T18:56:30.340Z,8.43
2023-08-14T19:01:46.821Z,8.43
2023-08-14T19:07:03.971Z,8.38
2023-08-14T19:12:24.771Z,8.31
2023-08-14T19:17:40.325Z,8.31
2023-08-14T19:22:55.600Z,8.39
2023-08-14T19:28:22.913Z,8.39
2023-08-14T19:33:28.113Z,8.35
2023-08-14T19:38:44.718Z,8.35
2023-08-14T19:43:59.618Z,8.28
2023-08-14T19:49:16.445Z,8.28
2023-08-14T19:54:35.150Z,8.28
2023-08-14T19:59:50.023Z,8.28
2023-08-14T20:05:06.450Z,8.31
2023-08-14T20:10:21.685Z,8.31
2023-08-14T20:15:38.507Z,8.33
2023-08-14T20:20:54.003Z,8.33
2023-08-14T20:26:09.045Z,8.32
2023-08-14T20:31:25.124Z,8.32
2023-08-14T20:36:41.223Z,8.42
2023-08-14T20:41:57.989Z,8.42
2023-08-14T20:47:12.291Z,8.27
2023-08-14T20:52:27.777Z,8.27
2023-08-14T20:57:44.599Z,8.33
2023-08-14T21:03:01.381Z,8.32
2023-08-14T21:08:16.936Z,8.32
2023-08-14T21:13:31.769Z,8.37
2023-08-14T21:18:47.344Z,8.37
2023-08-14T21:24:03.484Z,8.4
2023-08-14T21:29:18.346Z,8.4
2023-08-14T21:34:34.532Z,8.32
2023-08-14T21:39:51.322Z,8.32
2023-08-14T21:45:06.182Z,8.32
2023-08-14T21:50:22.332Z,8.32
2023-08-14T21:55:38.058Z,8.33
2023-08-14T22:00:54.345Z,8.33
2023-08-14T22:06:10.188Z,8.35
2023-08-14T22:11:28.246Z,8.35
2023-08-14T22:16:44.747Z,8.31
2023-08-14T22:21:59.918Z,8.31
2023-08-14T22:27:16.772Z,8.27
2023-08-14T22:32:33.797Z,8.27
2023-08-14T22:37:49.662Z,8.33
2023-08-14T22:43:03.935Z,8.33
2023-08-14T22:48:19.597Z,8.36
2023-08-14T22:53:35.626Z,8.29
2023-08-14T22:58:53.683Z,8.29
2023-08-14T23:04:09.729Z,8.52
2023-08-14T23:09:25.371Z,8.52
2023-08-14T23:14:41.541Z,8.29
2023-08-14T23:19:57.072Z,8.29
2023-08-14T23:25:12.645Z,8.39
2023-08-14T23:30:28.712Z,8.39
2023-08-14T23:35:44.549Z,8.35
2023-08-14T23:40:59.782Z,8.35
2023-08-14T23:46:16.143Z,8.23
2023-08-14T23:51:32.086Z,8.23
2023-08-14T23:56:48.348Z,8.32
